Terminal Aerodrome Forecast
Issued by NWS Sioux Falls, SD

Home | Current Version | Previous Version | Graphics & Text | Print | Product List | Glossary On
Versions: 1 2 3 4 5 6 7 8 9 10 11 12 13
000
FTUS43 KFSD 142320
TAFFSD
TAF
KFSD 142320Z 1500/1524 34018G26KT P6SM VCSH OVC008
     FM150500 33018G26KT P6SM VCSH OVC015
     FM150700 32015G23KT P6SM BKN025
     FM151000 32010KT P6SM SKC
     FM151400 28007KT P6SM SKC
     FM152000 27012KT P6SM SKC=

USA.gov is the U.S. government's official web portal to all federal, state and local government web resources and services.